Raub, North Dakota
Current Conditions -  °F | °C
As of 7:55 AM on Friday 31 Oct 2014 (Local Time) from KHZE Reporting Station
Broken Clouds Broken Clouds  
Wind Chill:   Ceiling: 2800
Heat Index: 19°   Visibility: 10mi
Dew Point: 16°   Wind: 8mph
Humidity: 86%   Direction: 140°SE
Pressure: 30.48"   Gusts: NA
Location:  47.826°N, 101.824°W
Report Text: KHZE 311255Z AUTO 14007KT 10SM SCT022 BKN028 M07/M09 A3048 RMK AO2
Loading
Personal Weather Stations






























Interactive Weather Map
Tropical Storm Tracking
New forecast layout! Learn more

10-Day Weather Forecast

Advertisements
Track Severe Weather on mobile